Time;durP1;ratioP1;P1;durP2;ratioP2;P2;SDS_P1;SDS_P2;PMS_P1;PMS_P2;Temp;Humidity;BMP_temperature;BMP_pressure;BME280_temperature;BME280_humidity;BME280_pressure;Samples;Min_cycle;Max_cycle;Signal;HPM_P1;HPM_P2
2023/03/26 00:01:32;;;;;;;3.22;1.45;;;;;;;6.41;100.00;95059.75;5038560;28;20037;-73
2023/03/26 00:03:58;;;;;;;3.47;1.48;;;;;;;6.41;100.00;95061.59;5034436;28;20049;-74
2023/03/26 00:06:29;;;;;;;3.30;1.38;;;;;;;6.35;100.00;95052.94;5044491;28;20489;-73
2023/03/26 00:08:57;;;;;;;3.92;1.70;;;;;;;6.40;100.00;95060.00;5049284;28;20051;-74
2023/03/26 00:11:26;;;;;;;2.70;1.65;;;;;;;6.46;100.00;95050.34;5044966;28;20041;-73
2023/03/26 00:13:55;;;;;;;3.80;1.35;;;;;;;6.53;100.00;95053.53;5039266;28;20052;-72
2023/03/26 00:16:22;;;;;;;4.50;1.30;;;;;;;6.55;100.00;95051.44;5041914;28;20044;-73
2023/03/26 00:18:50;;;;;;;4.40;1.83;;;;;;;6.57;100.00;95057.22;5042504;28;20056;-72
2023/03/26 00:21:24;;;;;;;4.18;1.33;;;;;;;6.59;100.00;95052.50;5037743;28;20036;-72
2023/03/26 00:23:52;;;;;;;7.28;1.52;;;;;;;6.60;100.00;95054.09;5031592;28;20051;-73
2023/03/26 00:26:18;;;;;;;9.70;1.48;;;;;;;6.49;100.00;95044.63;5042941;28;20037;-73
2023/03/26 00:28:44;;;;;;;4.68;1.48;;;;;;;6.44;100.00;95044.59;5048090;28;20045;-73
2023/03/26 00:31:12;;;;;;;5.55;1.10;;;;;;;6.43;100.00;95048.25;5041380;28;20048;-73
2023/03/26 00:33:39;;;;;;;4.20;1.35;;;;;;;6.33;100.00;95039.31;5027796;28;20038;-73
2023/03/26 00:36:09;;;;;;;4.50;1.40;;;;;;;6.34;100.00;95040.13;5030274;28;20041;-73
2023/03/26 00:38:37;;;;;;;5.55;1.35;;;;;;;6.26;100.00;95043.97;5044194;28;20037;-73
2023/03/26 00:41:06;;;;;;;2.25;1.38;;;;;;;6.27;100.00;95037.72;5030523;28;20046;-73
2023/03/26 00:43:34;;;;;;;4.20;1.55;;;;;;;6.28;100.00;95031.47;5033339;28;20060;-73
2023/03/26 00:46:01;;;;;;;1.65;1.08;;;;;;;6.26;100.00;95038.75;5040253;28;20118;-73
2023/03/26 00:48:28;;;;;;;6.63;1.40;;;;;;;6.27;100.00;95032.50;5042127;28;20040;-73
2023/03/26 00:50:55;;;;;;;3.55;1.45;;;;;;;6.21;100.00;95036.13;5039280;28;20048;-73
2023/03/26 00:53:20;;;;;;;5.05;1.33;;;;;;;6.15;100.00;95026.66;5044369;28;20041;-73
2023/03/26 00:55:47;;;;;;;6.55;1.63;;;;;;;6.14;100.00;95027.72;5039541;28;20063;-72
2023/03/26 00:58:13;;;;;;;4.72;1.45;;;;;;;6.10;100.00;95029.25;5047038;28;20047;-73
2023/03/26 01:00:59;;;;;;;3.10;1.15;;;;;;;6.07;100.00;95028.72;5034244;28;20037;-72
2023/03/26 01:03:32;;;;;;;5.55;1.73;;;;;;;6.03;100.00;95025.06;5046147;28;20099;-73
2023/03/26 01:06:06;;;;;;;7.63;1.73;;;;;;;6.00;100.00;95030.75;5043486;28;20493;-73
2023/03/26 01:08:39;;;;;;;3.80;1.58;;;;;;;6.02;100.00;95033.91;5034711;28;20086;-73
2023/03/26 01:11:12;;;;;;;5.07;1.40;;;;;;;6.00;100.00;95024.75;5033750;28;20046;-73
2023/03/26 01:13:40;;;;;;;5.32;1.45;;;;;;;5.92;100.00;95023.38;5043529;28;20072;-74
2023/03/26 01:16:18;;;;;;;3.25;1.25;;;;;;;5.85;100.00;95033.25;5044894;28;20049;-74
2023/03/26 01:18:45;;;;;;;6.82;1.42;;;;;;;5.80;100.00;95030.59;5044388;28;20038;-74
2023/03/26 01:21:13;;;;;;;4.78;1.80;;;;;;;5.80;100.00;95025.38;5033751;28;20508;-74
2023/03/26 01:23:47;;;;;;;6.07;1.65;;;;;;;5.82;100.00;95031.13;5042307;28;20463;-74
2023/03/26 01:26:51;;;;;;;5.43;2.08;;;;;;;5.76;100.00;95039.97;5040729;28;20421;-73
2023/03/26 01:29:24;;;;;;;5.05;1.27;;;;;;;5.74;100.00;95027.16;5041593;28;20037;-74
2023/03/26 01:32:03;;;;;;;5.10;1.35;;;;;;;5.64;100.00;95022.66;5031772;28;20087;-73
2023/03/26 01:34:57;;;;;;;2.47;1.30;;;;;;;5.70;100.00;95021.66;5038944;28;20052;-75
2023/03/26 01:37:37;;;;;;;4.53;1.50;;;;;;;5.69;100.00;95014.88;5034438;28;20063;-74
2023/03/26 01:40:14;;;;;;;9.27;1.92;;;;;;;5.70;100.00;95016.44;5040736;28;20416;-73
2023/03/26 01:42:50;;;;;;;8.13;1.60;;;;;;;5.68;100.00;95013.28;5033778;28;20049;-74
2023/03/26 01:45:22;;;;;;;9.05;1.80;;;;;;;5.68;100.00;95005.44;5044374;28;20508;-73
2023/03/26 01:47:48;;;;;;;8.93;2.00;;;;;;;5.76;100.00;95013.84;5040231;28;20041;-74
2023/03/26 01:50:14;;;;;;;5.30;1.48;;;;;;;5.65;100.00;95013.00;5040754;28;20045;-74
2023/03/26 01:52:40;;;;;;;6.10;1.45;;;;;;;5.57;100.00;95000.41;5031893;28;20057;-73
2023/03/26 01:55:10;;;;;;;5.35;1.63;;;;;;;5.59;100.00;94999.13;5037687;28;20067;-74
2023/03/26 01:58:06;;;;;;;8.63;1.77;;;;;;;5.63;100.00;95005.44;5038793;28;20091;-74
2023/03/26 02:00:41;;;;;;;6.53;1.92;;;;;;;5.55;100.00;95003.28;5038721;28;20107;-74
2023/03/26 02:03:25;;;;;;;7.32;1.80;;;;;;;5.51;100.00;94996.97;5038673;28;20049;-74
2023/03/26 02:06:01;;;;;;;2.95;1.48;;;;;;;5.45;100.00;94987.53;5041601;28;20090;-74
2023/03/26 02:08:40;;;;;;;3.30;1.35;;;;;;;5.53;100.00;94989.66;5041564;28;20086;-74
2023/03/26 02:11:11;;;;;;;5.25;1.60;;;;;;;5.41;100.00;94981.25;5047346;28;20048;-74
2023/03/26 02:13:42;;;;;;;7.18;2.05;;;;;;;5.33;100.00;94980.66;5035471;28;20069;-74
2023/03/26 02:16:12;;;;;;;6.30;1.70;;;;;;;5.51;100.00;94982.09;5048562;28;20065;-73
2023/03/26 02:18:39;;;;;;;6.82;1.60;;;;;;;5.51;100.00;94971.66;5038355;28;20037;-74
2023/03/26 02:21:11;;;;;;;9.45;1.67;;;;;;;5.58;100.00;94976.66;5034566;28;20045;-73
2023/03/26 02:23:39;;;;;;;5.00;1.90;;;;;;;5.66;100.00;94968.38;5035148;28;20041;-73
2023/03/26 02:26:09;;;;;;;5.70;1.80;;;;;;;5.73;100.00;94979.38;5044618;28;20501;-73
2023/03/26 02:28:36;;;;;;;6.63;1.58;;;;;;;5.64;100.00;94975.66;5040735;28;20545;-74
2023/03/26 02:31:02;;;;;;;6.38;1.50;;;;;;;5.78;100.00;94975.25;5044345;28;20047;-73
2023/03/26 02:33:29;;;;;;;5.63;1.63;;;;;;;5.77;100.00;94971.06;5049764;28;20378;-72
2023/03/26 02:35:58;;;;;;;8.63;1.63;;;;;;;5.71;100.00;94965.78;5042175;28;20052;-73
2023/03/26 02:38:27;;;;;;;10.43;1.92;;;;;;;5.61;100.00;94970.94;5033434;28;20037;-74
2023/03/26 02:40:54;;;;;;;6.03;2.42;;;;;;;5.72;100.00;94966.59;5039316;28;20432;-73
2023/03/26 02:43:21;;;;;;;3.83;1.65;;;;;;;5.72;100.00;94967.38;5030537;28;20511;-72
2023/03/26 02:45:46;;;;;;;8.18;1.73;;;;;;;5.67;100.00;94956.88;5039735;28;20048;-73
2023/03/26 02:48:14;;;;;;;5.03;1.60;;;;;;;5.64;100.00;94957.38;5033725;28;20065;-74
2023/03/26 02:50:40;;;;;;;5.22;1.60;;;;;;;5.70;100.00;94953.78;5047642;28;20052;-73
2023/03/26 02:53:07;;;;;;;10.98;1.73;;;;;;;5.72;100.00;94946.47;5039422;28;20456;-73
2023/03/26 02:55:32;;;;;;;4.13;1.50;;;;;;;5.76;100.00;94951.19;5040646;28;20073;-72
2023/03/26 02:57:59;;;;;;;7.95;1.70;;;;;;;5.85;100.00;94939.25;5034166;28;20449;-73
2023/03/26 03:00:24;;;;;;;4.50;1.65;;;;;;;5.92;100.00;94937.19;5046321;28;20045;-72
2023/03/26 03:02:51;;;;;;;4.40;1.40;;;;;;;5.78;100.00;94941.31;5037241;28;20095;-73
2023/03/26 03:05:18;;;;;;;8.65;1.90;;;;;;;5.71;100.00;94937.06;5034123;28;20046;-73
2023/03/26 03:07:45;;;;;;;6.30;1.75;;;;;;;5.67;100.00;94936.00;5035005;28;20045;-73
2023/03/26 03:10:12;;;;;;;6.70;2.00;;;;;;;5.64;100.00;94926.06;5036370;28;20052;-72
2023/03/26 03:12:40;;;;;;;5.30;1.92;;;;;;;5.61;100.00;94918.72;5038572;28;20037;-73
2023/03/26 03:15:06;;;;;;;7.65;1.60;;;;;;;5.64;100.00;94918.22;5035626;28;20516;-73
2023/03/26 03:17:32;;;;;;;2.85;1.40;;;;;;;5.55;100.00;94909.31;5037276;28;20041;-73
2023/03/26 03:19:58;;;;;;;5.22;1.60;;;;;;;5.54;100.00;94907.72;5039500;28;20048;-73
2023/03/26 03:22:23;;;;;;;7.97;1.73;;;;;;;5.62;100.00;94894.22;5040648;28;20413;-72
2023/03/26 03:24:50;;;;;;;6.70;1.65;;;;;;;5.60;100.00;94896.28;5044823;28;20040;-73
2023/03/26 03:27:19;;;;;;;6.72;1.73;;;;;;;5.58;100.00;94893.13;5035228;28;20041;-73
2023/03/26 03:29:45;;;;;;;8.13;2.05;;;;;;;5.60;100.00;94885.06;5029742;28;20045;-73
2023/03/26 03:32:11;;;;;;;7.75;2.08;;;;;;;5.61;100.00;94891.84;5032123;28;20052;-73
2023/03/26 03:34:37;;;;;;;5.50;1.90;;;;;;;5.58;100.00;94887.16;5038799;28;20029;-73
2023/03/26 03:37:04;;;;;;;11.70;1.70;;;;;;;5.50;100.00;94886.59;5035326;28;20045;-72
2023/03/26 03:39:30;;;;;;;5.53;1.50;;;;;;;5.42;100.00;94888.88;5035856;28;20537;-73
2023/03/26 03:41:55;;;;;;;8.27;1.90;;;;;;;5.42;100.00;94883.66;5039745;28;20041;-73
2023/03/26 03:44:21;;;;;;;10.13;1.90;;;;;;;5.44;100.00;94890.19;5047954;28;20040;-73
2023/03/26 03:46:48;;;;;;;13.77;1.98;;;;;;;5.34;100.00;94890.91;5036962;28;20049;-73
2023/03/26 03:49:13;;;;;;;10.20;1.63;;;;;;;5.30;100.00;94876.81;5032963;28;20119;-73
2023/03/26 03:51:39;;;;;;;11.55;2.08;;;;;;;5.16;100.00;94881.66;5037659;28;21767;-73
2023/03/26 03:54:05;;;;;;;11.27;1.80;;;;;;;5.25;100.00;94884.59;5041157;28;20041;-74
2023/03/26 03:56:31;;;;;;;7.38;1.77;;;;;;;5.01;100.00;94879.72;5048197;28;20045;-73
2023/03/26 03:58:57;;;;;;;7.43;1.60;;;;;;;4.95;100.00;94885.91;5041212;28;20416;-73
2023/03/26 04:01:23;;;;;;;6.93;1.80;;;;;;;5.16;100.00;94878.28;5039266;28;20501;-73
2023/03/26 04:03:49;;;;;;;7.82;1.60;;;;;;;5.07;100.00;94877.13;5037682;28;20558;-74
2023/03/26 04:06:17;;;;;;;6.72;1.38;;;;;;;4.99;100.00;94873.97;5043889;28;20044;-73
2023/03/26 04:08:44;;;;;;;6.97;1.67;;;;;;;5.06;100.00;94870.34;5035131;28;20049;-73
2023/03/26 04:11:12;;;;;;;9.15;1.70;;;;;;;5.03;100.00;94859.38;5043880;28;20500;-73
2023/03/26 04:13:37;;;;;;;4.18;1.70;;;;;;;4.91;100.00;94852.78;5038277;28;20037;-73
2023/03/26 04:16:03;;;;;;;4.35;1.50;;;;;;;4.81;100.00;94858.69;5040081;28;20040;-73
2023/03/26 04:18:31;;;;;;;7.47;1.70;;;;;;;4.77;100.00;94855.00;5045210;28;20363;-73
2023/03/26 04:21:01;;;;;;;7.47;1.58;;;;;;;4.77;100.00;94857.59;5041215;28;20049;-73
2023/03/26 04:23:28;;;;;;;9.02;1.85;;;;;;;4.73;100.00;94851.34;5036476;28;20060;-73
2023/03/26 04:25:54;;;;;;;10.18;1.60;;;;;;;4.61;100.00;94848.88;5044852;28;20045;-73
2023/03/26 04:28:34;;;;;;;5.72;1.55;;;;;;;4.57;100.00;94848.59;5040797;28;20041;-73
2023/03/26 04:31:02;;;;;;;11.25;1.83;;;;;;;4.69;100.00;94841.38;5043811;28;20045;-73
2023/03/26 04:33:32;;;;;;;11.88;1.83;;;;;;;4.85;100.00;94844.13;5036150;28;20124;-72
2023/03/26 04:36:01;;;;;;;5.30;1.52;;;;;;;4.81;100.00;94843.03;5034647;28;20417;-73
2023/03/26 04:38:32;;;;;;;8.25;1.92;;;;;;;4.93;100.00;94846.28;5041286;28;20064;-73
2023/03/26 04:40:59;;;;;;;8.68;2.20;;;;;;;4.86;100.00;94840.50;5040623;28;20061;-73
2023/03/26 04:43:25;;;;;;;6.18;1.65;;;;;;;4.86;100.00;94835.28;5036228;28;20053;-73
2023/03/26 04:45:51;;;;;;;7.88;1.58;;;;;;;4.85;100.00;94833.69;5046742;28;20048;-73
2023/03/26 04:48:19;;;;;;;5.50;1.50;;;;;;;4.75;100.00;94828.41;5043794;28;20060;-73
2023/03/26 04:50:45;;;;;;;5.65;1.63;;;;;;;4.75;100.00;94823.19;5036881;28;20049;-73
2023/03/26 04:53:15;;;;;;;6.03;1.73;;;;;;;4.77;100.00;94815.91;5042698;28;20044;-72
2023/03/26 04:56:01;;;;;;;7.53;1.90;;;;;;;4.74;100.00;94816.41;5037862;28;20095;-72
2023/03/26 04:58:31;;;;;;;4.72;1.40;;;;;;;4.65;100.00;94811.63;5038376;28;20563;-73
2023/03/26 05:00:59;;;;;;;8.77;1.83;;;;;;;4.85;100.00;94818.06;5038301;28;21953;-74
2023/03/26 05:03:30;;;;;;;7.00;1.70;;;;;;;4.86;100.00;94811.81;5035397;28;20041;-74
2023/03/26 05:05:58;;;;;;;7.10;2.25;;;;;;;4.81;100.00;94806.56;5042575;28;20519;-74
2023/03/26 05:08:25;;;;;;;8.07;1.80;;;;;;;4.84;100.00;94811.25;5051909;28;20037;-74
2023/03/26 05:10:51;;;;;;;7.03;1.80;;;;;;;4.86;100.00;94802.16;5047967;28;20048;-73
2023/03/26 05:13:16;;;;;;;6.20;1.60;;;;;;;4.88;100.00;94796.69;5040492;28;20420;-73
2023/03/26 05:15:42;;;;;;;10.63;1.58;;;;;;;4.82;100.00;94792.50;5050541;28;20048;-74
2023/03/26 05:18:08;;;;;;;3.10;1.33;;;;;;;4.91;100.00;94785.75;5046974;28;20037;-74
2023/03/26 05:20:33;;;;;;;8.90;2.47;;;;;;;4.89;100.00;94781.84;5047088;28;20056;-74
2023/03/26 05:22:59;;;;;;;8.90;1.73;;;;;;;4.85;100.00;94781.56;5046859;28;20467;-73
2023/03/26 05:25:25;;;;;;;4.95;1.58;;;;;;;4.96;100.00;94782.44;5037845;28;20127;-74
2023/03/26 05:27:50;;;;;;;5.55;1.83;;;;;;;4.95;100.00;94775.63;5034548;28;20468;-74
2023/03/26 05:30:19;;;;;;;8.85;1.60;;;;;;;5.05;100.00;94774.91;5045947;28;20071;-74
2023/03/26 05:32:47;;;;;;;6.35;1.70;;;;;;;5.05;100.00;94777.53;5036801;28;20041;-74
2023/03/26 05:35:15;;;;;;;3.35;1.40;;;;;;;5.19;100.00;94784.63;5038553;28;20037;-74
2023/03/26 05:37:42;;;;;;;4.95;1.55;;;;;;;5.16;100.00;94779.16;5038927;28;20073;-74
2023/03/26 05:40:11;;;;;;;6.35;2.25;;;;;;;5.28;100.00;94784.16;5043318;28;20068;-74
2023/03/26 05:42:38;;;;;;;7.32;1.55;;;;;;;5.34;100.00;94778.72;5040038;28;20041;-74
2023/03/26 05:45:09;;;;;;;6.63;1.88;;;;;;;5.32;100.00;94780.78;5039877;28;20042;-74
2023/03/26 05:47:34;;;;;;;6.95;1.80;;;;;;;5.53;100.00;94775.66;5039895;28;20041;-74
2023/03/26 05:50:00;;;;;;;8.10;1.73;;;;;;;5.49;100.00;94764.19;5046318;28;20731;-73
2023/03/26 05:52:26;;;;;;;7.00;1.60;;;;;;;5.51;100.00;94767.31;5038746;28;20034;-74
2023/03/26 05:54:51;;;;;;;6.95;1.92;;;;;;;5.59;100.00;94766.03;5040630;28;20447;-74
2023/03/26 05:57:17;;;;;;;5.63;1.70;;;;;;;5.61;100.00;94756.91;5034773;28;20042;-74
2023/03/26 05:59:43;;;;;;;8.40;1.75;;;;;;;5.65;100.00;94744.91;5048164;28;20116;-73
2023/03/26 06:02:09;;;;;;;5.30;1.67;;;;;;;5.65;100.00;94742.28;5043326;28;20048;-73
2023/03/26 06:04:39;;;;;;;5.47;1.67;;;;;;;5.75;100.00;94740.75;5035935;28;20045;-73
2023/03/26 06:07:08;;;;;;;6.20;2.10;;;;;;;5.81;100.00;94729.28;5032236;28;20563;-73
2023/03/26 06:09:38;;;;;;;5.15;1.40;;;;;;;5.89;100.00;94731.41;5040953;28;20041;-73
2023/03/26 06:12:06;;;;;;;5.55;1.45;;;;;;;5.92;100.00;94723.06;5035811;28;20504;-74
2023/03/26 06:14:32;;;;;;;7.45;1.83;;;;;;;5.93;100.00;94716.75;5037267;28;20046;-73
2023/03/26 06:16:57;;;;;;;5.07;1.63;;;;;;;5.96;100.00;94718.06;5050937;28;20562;-73
2023/03/26 06:19:23;;;;;;;11.35;1.60;;;;;;;6.09;100.00;94719.44;5045792;28;20044;-72
2023/03/26 06:21:49;;;;;;;7.93;1.83;;;;;;;6.02;100.00;94723.09;5045876;28;20037;-72
2023/03/26 06:24:15;;;;;;;7.00;1.83;;;;;;;6.03;100.00;94716.84;5038775;28;20084;-74
2023/03/26 06:26:41;;;;;;;5.28;1.70;;;;;;;6.01;100.00;94713.69;5051554;28;20041;-74
2023/03/26 06:29:07;;;;;;;7.03;1.60;;;;;;;6.01;100.00;94708.44;5038697;28;20047;-73
2023/03/26 06:31:33;;;;;;;7.03;1.63;;;;;;;6.03;100.00;94716.84;5041112;28;20443;-74
2023/03/26 06:33:59;;;;;;;8.18;1.70;;;;;;;6.19;100.00;94711.59;5037070;28;20045;-73
2023/03/26 06:36:24;;;;;;;6.57;1.90;;;;;;;6.20;100.00;94710.56;5036663;28;20492;-74
2023/03/26 06:38:50;;;;;;;5.00;1.60;;;;;;;6.31;100.00;94706.91;5043479;28;20064;-73
2023/03/26 06:41:15;;;;;;;7.18;2.00;;;;;;;6.29;100.00;94708.97;5047802;28;20110;-75
2023/03/26 06:43:41;;;;;;;3.88;1.63;;;;;;;6.21;100.00;94683.41;5038713;28;20600;-77
2023/03/26 06:46:10;;;;;;;11.25;2.10;;;;;;;6.29;100.00;94693.31;5045790;28;20104;-75
2023/03/26 06:48:35;;;;;;;7.45;1.83;;;;;;;6.24;100.00;94695.94;5047563;28;20041;-75
2023/03/26 06:51:01;;;;;;;6.15;1.67;;;;;;;6.28;100.00;94704.81;5054659;28;20045;-80
2023/03/26 06:53:27;;;;;;;10.32;2.53;;;;;;;6.36;100.00;94693.06;5037942;28;20037;-75
2023/03/26 06:55:53;;;;;;;6.43;2.38;;;;;;;6.38;100.00;94702.22;5045168;28;20492;-74
2023/03/26 06:58:20;;;;;;;12.40;2.08;;;;;;;6.41;100.00;94701.69;5050587;28;20126;-74
2023/03/26 07:00:46;;;;;;;7.57;1.60;;;;;;;6.30;100.00;94700.09;5046014;28;20044;-75
2023/03/26 07:03:11;;;;;;;9.80;1.92;;;;;;;6.34;100.00;94693.31;5050773;28;20504;-75
2023/03/26 07:05:39;;;;;;;12.73;2.10;;;;;;;6.36;100.00;94688.59;5045564;28;20407;-77
2023/03/26 07:08:05;;;;;;;8.65;2.05;;;;;;;6.36;100.00;94688.59;5044824;28;20045;-77
2023/03/26 07:10:31;;;;;;;8.80;1.95;;;;;;;6.39;100.00;94682.88;5043711;28;20488;-76
2023/03/26 07:12:56;;;;;;;7.60;2.20;;;;;;;6.31;100.00;94686.00;5047321;28;20064;-76
2023/03/26 07:15:22;;;;;;;9.50;2.10;;;;;;;6.26;100.00;94680.78;5045840;28;20052;-75
2023/03/26 07:17:48;;;;;;;9.73;1.90;;;;;;;6.22;100.00;94667.47;5045883;28;20489;-76
2023/03/26 07:20:13;;;;;;;8.18;2.03;;;;;;;6.12;100.00;94677.13;5048429;28;20518;-76
2023/03/26 07:22:40;;;;;;;6.90;2.53;;;;;;;6.07;100.00;94670.84;5043283;28;20182;-77
2023/03/26 07:25:07;;;;;;;10.35;2.00;;;;;;;6.07;100.00;94676.06;5049981;28;20069;-77
2023/03/26 07:27:52;;;;;;;12.77;2.67;;;;;;;5.94;100.00;94657.50;5045683;28;20044;-76
2023/03/26 07:30:31;;;;;;;10.27;2.10;;;;;;;5.85;100.00;94654.63;5045900;28;20038;-77
2023/03/26 07:33:08;;;;;;;11.02;2.00;;;;;;;5.89;100.00;94640.00;5050014;28;20036;-77
2023/03/26 07:35:47;;;;;;;14.27;3.60;;;;;;;5.81;100.00;94617.78;5047374;28;20057;-77
2023/03/26 07:38:28;;;;;;;8.45;3.00;;;;;;;5.82;100.00;94611.53;5034504;28;20041;-75
2023/03/26 07:41:13;;;;;;;13.57;3.25;;;;;;;5.74;100.00;94604.22;5042279;28;20528;-75
2023/03/26 07:43:57;;;;;;;13.98;2.78;;;;;;;5.79;100.00;94595.59;5034226;28;20065;-73
2023/03/26 07:46:28;;;;;;;10.40;2.58;;;;;;;5.86;100.00;94586.47;5046918;28;20378;-75
2023/03/26 07:48:57;;;;;;;11.75;3.03;;;;;;;5.87;100.00;94582.78;5044756;28;20167;-75
2023/03/26 07:51:23;;;;;;;13.75;2.63;;;;;;;5.69;100.00;94581.50;5049339;28;20581;-74
2023/03/26 07:53:49;;;;;;;16.35;3.08;;;;;;;5.88;100.00;94578.38;5042182;28;20042;-74
2023/03/26 07:56:16;;;;;;;6.80;2.50;;;;;;;5.91;100.00;94572.63;5046761;28;20102;-73
2023/03/26 07:59:20;;;;;;;14.10;2.72;;;;;;;5.92;100.00;94568.19;5038592;28;20038;-75
2023/03/26 08:02:17;;;;;;;16.77;4.22;;;;;;;5.95;100.00;94573.66;5043089;28;20562;-77
2023/03/26 08:04:42;;;;;;;10.30;2.95;;;;;;;6.05;100.00;94563.25;5043997;28;20191;-76
2023/03/26 08:07:20;;;;;;;8.10;2.95;;;;;;;5.99;100.00;94559.06;5049011;28;20493;-79
2023/03/26 08:10:05;;;;;;;13.98;3.33;;;;;;;6.20;100.00;94548.59;5042477;28;20041;-75
2023/03/26 08:12:49;;;;;;;;;;;;;;;6.22;100.00;94547.28;5046531;28;20586;-76
2023/03/26 08:15:24;;;;;;;10.55;2.78;;;;;;;6.35;100.00;94537.28;5045384;28;19924;-76
2023/03/26 08:17:55;;;;;;;11.10;2.90;;;;;;;6.44;100.00;94527.06;5041084;28;20508;-76
2023/03/26 08:20:48;;;;;;;10.70;2.58;;;;;;;6.43;100.00;94515.06;5042459;28;20528;-75
2023/03/26 08:23:23;;;;;;;12.95;2.72;;;;;;;6.47;100.00;94513.50;5038385;28;20444;-74
2023/03/26 08:25:58;;;;;;;13.85;3.00;;;;;;;6.50;100.00;94520.81;5053650;28;20090;-75
2023/03/26 08:28:56;;;;;;;14.38;2.83;;;;;;;6.53;100.00;94520.25;5047162;28;20048;-76
2023/03/26 08:31:32;;;;;;;21.10;4.78;;;;;;;6.56;100.00;94514.50;5038225;28;20090;-74
2023/03/26 08:33:58;;;;;;;25.75;6.72;;;;;;;6.62;100.00;94510.81;5044974;28;20044;-74
2023/03/26 08:36:25;;;;;;;17.95;3.85;;;;;;;6.59;100.00;94513.97;5053059;28;20428;-74
2023/03/26 08:38:51;;;;;;;19.10;4.07;;;;;;;6.61;100.00;94517.09;5051519;28;20505;-74
2023/03/26 08:41:42;;;;;;;12.98;3.35;;;;;;;6.62;100.00;94510.81;5044999;28;20053;-72
2023/03/26 08:44:32;;;;;;;11.88;3.30;;;;;;;6.83;100.00;94513.34;5059838;28;20057;-73
2023/03/26 08:47:26;;;;;;;15.93;3.53;;;;;;;6.90;100.00;94511.97;5072862;28;21521;-71
2023/03/26 08:50:13;;;;;;;17.63;3.83;;;;;;;6.82;100.00;94522.22;5072664;28;20045;-71
2023/03/26 08:52:39;;;;;;;11.63;3.13;;;;;;;6.93;100.00;94523.75;5068624;28;20045;-71
2023/03/26 08:55:36;;;;;;;12.52;2.85;;;;;;;6.74;100.00;94516.50;5077739;28;20021;-73
2023/03/26 08:58:21;;;;;;;22.73;5.30;;;;;;;6.74;100.00;94511.28;5069643;28;20096;-72
2023/03/26 09:01:21;;;;;;;16.60;3.40;;;;;;;6.91;100.00;94512.75;5078003;28;20029;-72
2023/03/26 09:04:09;;;;;;;9.43;3.40;;;;;;;6.62;100.00;94505.56;5067384;28;20029;-73
2023/03/26 09:06:54;;;;;;;24.42;3.75;;;;;;;6.81;100.00;94510.19;5068965;28;20051;-73
2023/03/26 09:09:19;;;;;;;;;;;;;;;6.69;100.00;94513.91;5044554;28;20420;-74
2023/03/26 09:12:00;;;;;;;10.07;2.70;;;;;;;6.62;100.00;94502.97;5049448;28;19936;-74
2023/03/26 09:14:49;;;;;;;8.02;2.33;;;;;;;6.69;100.00;94498.22;5051304;28;20668;-74
2023/03/26 09:17:26;;;;;;;11.98;2.80;;;;;;;6.56;100.00;94493.59;5051004;28;20069;-73
2023/03/26 09:20:40;;;;;;;11.93;2.60;;;;;;;6.41;100.00;94497.81;5052230;28;20040;-75
2023/03/26 09:23:32;;;;;;;21.10;3.25;;;;;;;6.68;100.00;94491.44;5007929;28;20128;-74
2023/03/26 09:26:35;;;;;;;18.17;3.28;;;;;;;6.63;100.00;94478.38;4984125;28;20113;-74
2023/03/26 09:29:32;;;;;;;12.57;3.40;;;;;;;6.63;100.00;94473.16;5040055;28;20696;-75
2023/03/26 09:32:17;;;;;;;19.50;3.00;;;;;;;6.73;100.00;94472.31;5048151;28;20040;-75
2023/03/26 09:35:11;;;;;;;18.13;3.13;;;;;;;6.86;100.00;94463.09;5042337;28;20041;-75
2023/03/26 09:37:40;;;;;;;;;;;;;;;6.67;100.00;94463.72;5045426;28;20044;-75
2023/03/26 09:40:21;;;;;;;11.93;3.00;;;;;;;6.59;100.00;94477.34;5051945;28;19925;-75
2023/03/26 09:43:12;;;;;;;18.05;3.30;;;;;;;6.39;100.00;94479.03;5041095;28;20048;-76
2023/03/26 09:45:53;;;;;;;19.13;3.22;;;;;;;6.34;100.00;94481.66;5046651;28;20040;-75
2023/03/26 09:48:54;;;;;;;13.75;3.50;;;;;;;6.34;100.00;94480.88;5042671;28;20315;-75
2023/03/26 09:51:47;;;;;;;10.82;3.47;;;;;;;6.45;100.00;94465.94;5048249;28;20052;-75
2023/03/26 09:54:22;;;;;;;19.73;3.53;;;;;;;6.28;100.00;94451.38;5035769;28;20041;-75
2023/03/26 09:56:56;;;;;;;24.13;3.85;;;;;;;6.51;100.00;94462.25;5045519;28;20413;-75
2023/03/26 09:59:39;;;;;;;23.60;3.75;;;;;;;6.40;100.00;94475.34;5051067;28;20091;-76
2023/03/26 10:02:25;;;;;;;12.38;2.97;;;;;;;6.37;100.00;94473.28;5051703;28;20056;-76
2023/03/26 10:05:06;;;;;;;17.60;3.92;;;;;;;6.37;100.00;94462.81;5045119;28;20132;-76
2023/03/26 10:07:56;;;;;;;20.85;5.60;;;;;;;6.40;100.00;94453.66;5044938;28;20577;-77
2023/03/26 10:10:41;;;;;;;15.95;4.50;;;;;;;6.62;100.00;94450.69;5049325;28;20067;-77
2023/03/26 10:13:09;;;;;;;11.68;3.55;;;;;;;6.65;100.00;94439.69;5046461;28;20072;-77
2023/03/26 10:15:46;;;;;;;23.42;3.95;;;;;;;6.64;100.00;94432.91;5036418;28;20512;-78
2023/03/26 10:18:26;;;;;;;13.18;3.85;;;;;;;6.68;100.00;94428.69;5050577;28;20048;-77
2023/03/26 10:21:02;;;;;;;27.50;3.95;;;;;;;6.47;100.00;94428.03;5043158;28;20110;-75
2023/03/26 10:23:33;;;;;;;17.75;3.60;;;;;;;6.66;100.00;94430.78;5036572;28;20059;-77
2023/03/26 10:26:03;;;;;;;11.55;3.58;;;;;;;6.54;100.00;94446.03;5051933;28;20422;-77
2023/03/26 10:28:58;;;;;;;15.68;3.58;;;;;;;6.50;100.00;94442.38;5042895;28;20032;-76
2023/03/26 10:31:45;;;;;;;17.15;4.28;;;;;;;6.46;100.00;94441.34;5045830;28;20321;-77
2023/03/26 10:34:52;;;;;;;13.50;4.18;;;;;;;6.60;100.00;94439.72;5038709;28;20042;-74
2023/03/26 10:37:45;;;;;;;14.07;3.28;;;;;;;6.61;100.00;94453.56;5051132;28;20064;-75
2023/03/26 10:40:27;;;;;;;12.30;2.95;;;;;;;6.56;100.00;94451.75;5045086;28;20041;-73
2023/03/26 10:43:18;;;;;;;12.63;3.10;;;;;;;6.48;100.00;94460.16;5044662;28;20412;-75
2023/03/26 10:46:05;;;;;;;12.30;3.35;;;;;;;6.50;100.00;94471.13;5047178;28;20037;-75
2023/03/26 10:48:59;;;;;;;17.88;3.72;;;;;;;6.32;100.00;94477.72;5056877;28;20041;-76
2023/03/26 10:51:26;;;;;;;11.98;3.30;;;;;;;6.43;100.00;94463.59;5032203;28;20049;-70
2023/03/26 10:54:17;;;;;;;9.65;2.97;;;;;;;6.37;100.00;94468.03;5046510;28;20049;-72
2023/03/26 10:56:45;;;;;;;9.93;2.65;;;;;;;6.44;100.00;94454.69;5041680;28;20050;-72
2023/03/26 10:59:13;;;;;;;8.60;2.30;;;;;;;6.31;100.00;94453.44;5045171;28;20048;-72
2023/03/26 11:01:47;;;;;;;8.13;3.28;;;;;;;6.19;100.00;94445.13;5052752;28;20032;-72
2023/03/26 11:04:31;;;;;;;11.45;3.40;;;;;;;6.13;100.00;94439.13;5049808;28;20053;-71
2023/03/26 11:07:11;;;;;;;7.28;2.70;;;;;;;6.12;100.00;94426.34;5059227;28;20041;-72
2023/03/26 11:09:52;;;;;;;6.50;2.70;;;;;;;6.12;100.00;94421.91;5050676;28;20502;-71
2023/03/26 11:12:44;;;;;;;4.00;1.98;;;;;;;6.17;100.00;94429.72;5041532;28;20046;-73
2023/03/26 11:15:19;;;;;;;5.47;2.10;;;;;;;6.13;100.00;94422.69;5039320;28;20063;-74
2023/03/26 11:18:13;;;;;;;3.38;1.90;;;;;;;6.20;100.00;94423.19;5048805;28;20563;-73
2023/03/26 11:20:42;;;;;;;6.75;2.40;;;;;;;6.16;100.00;94424.75;5055392;28;20048;-72
2023/03/26 11:23:25;;;;;;;6.60;2.60;;;;;;;6.26;100.00;94406.44;5058226;28;20064;-72
2023/03/26 11:26:12;;;;;;;7.72;2.33;;;;;;;6.13;100.00;94412.25;5045349;28;20051;-72
2023/03/26 11:28:53;;;;;;;8.48;2.65;;;;;;;6.28;100.00;94420.03;5049729;28;20108;-73
2023/03/26 11:31:44;;;;;;;5.65;2.10;;;;;;;6.28;100.00;94411.38;5047223;28;20101;-74
2023/03/26 11:34:17;;;;;;;6.60;2.38;;;;;;;6.38;100.00;94414.75;5051997;28;20033;-74
2023/03/26 11:36:49;;;;;;;5.75;2.30;;;;;;;6.24;100.00;94419.00;5051446;28;20045;-75
2023/03/26 11:39:22;;;;;;;3.50;1.48;;;;;;;6.27;100.00;94425.50;5043629;28;20408;-75
2023/03/26 11:41:51;;;;;;;5.90;1.88;;;;;;;6.23;100.00;94423.44;5051063;28;20048;-74
2023/03/26 11:44:25;;;;;;;3.28;1.48;;;;;;;6.14;100.00;94421.66;5050128;28;20110;-75
2023/03/26 11:47:00;;;;;;;3.85;1.20;;;;;;;6.11;100.00;94411.75;5051137;28;20048;-74
2023/03/26 11:49:26;;;;;;;1.38;1.13;;;;;;;6.05;100.00;94422.19;5051444;28;20049;-76
2023/03/26 11:51:53;;;;;;;3.35;1.40;;;;;;;6.05;100.00;94411.75;5045164;28;20055;-76
2023/03/26 11:54:19;;;;;;;8.02;3.08;;;;;;;6.06;100.00;94413.31;5050506;28;20060;-77
2023/03/26 11:56:48;;;;;;;102.68;45.13;;;;;;;6.11;100.00;94422.19;5048176;28;20052;-76
2023/03/26 11:59:43;;;;;;;4.78;2.28;;;;;;;6.11;100.00;94415.13;5046832;28;20041;-74